Time;durP1;ratioP1;P1;durP2;ratioP2;P2;SDS_P1;SDS_P2;PMS_P1;PMS_P2;Temp;Humidity;BMP_temperature;BMP_pressure;BME280_temperature;BME280_humidity;BME280_pressure;Samples;Min_cycle;Max_cycle;Signal;HPM_P1;HPM_P2
2022/08/08 00:00:07;;;;;;;;;;;;;;;17.77;48.55;101822.28;5059142;28;20556;-76
2022/08/08 00:02:43;;;;;;;;;;;;;;;17.68;49.11;101816.50;5058118;28;19932;-76
2022/08/08 00:05:15;;;;;;;;;;;;;;;17.60;49.36;101814.09;5057836;28;19920;-76
2022/08/08 00:07:49;;;;;;;;;;;;;;;17.59;50.04;101815.88;5056727;28;19913;-76
2022/08/08 00:10:33;;;;;;;;;;;;;;;17.55;50.18;101813.38;5054241;28;20441;-76
2022/08/08 00:13:01;;;;;;;;;;;;;;;17.50;49.97;101808.25;5058132;28;19943;-76
2022/08/08 00:15:30;;;;;;;;;;;;;;;17.51;50.04;101815.25;5056376;28;20453;-76
2022/08/08 00:17:56;;;;;;;;;;;;;;;17.44;50.19;101816.34;5042161;28;19987;-76
2022/08/08 00:20:44;;;;;;;;;;;;;;;17.42;50.40;101812.91;5055913;28;19920;-76
2022/08/08 00:23:33;;;;;;;;;;;;;;;17.39;50.72;101809.53;5053335;28;20319;-77
2022/08/08 00:26:01;;;;;;;;;;;;;;;17.35;51.25;101808.75;5064880;28;19939;-77
2022/08/08 00:28:32;;;;;;;;;;;;;;;17.38;51.01;101811.28;5061778;28;20448;-77
2022/08/08 00:30:59;;;;;;;;;;;;;;;17.34;51.50;101803.56;5064008;28;19921;-77
2022/08/08 00:33:27;;;;;;;;;;;;;;;17.32;51.75;101808.84;5063969;28;20138;-77
2022/08/08 00:36:12;;;;;;;;;;;;;;;17.32;52.10;101808.84;5061311;28;19927;-77
2022/08/08 00:38:47;;;;;;;;;;;;;;;17.25;52.46;101812.63;5055773;28;20282;-77
2022/08/08 00:41:38;;;;;;;;;;;;;;;17.25;52.54;101814.38;5061267;28;19940;-77
2022/08/08 00:44:12;;;;;;;;;;;;;;;17.24;52.48;101821.38;5016107;28;20334;-77
2022/08/08 00:46:49;;;;;;;;;;;;;;;17.21;52.38;101816.22;5066209;28;20720;-77
2022/08/08 00:49:17;;;;;;;;;;;;;;;17.22;52.74;101814.47;5064287;28;19931;-77
2022/08/08 00:52:01;;;;;;;;;;;;;;;17.21;52.43;101818.00;5060292;28;19928;-77
2022/08/08 00:54:30;;;;;;;;;;;;;;;17.22;52.62;101812.72;5052840;28;20304;-77
2022/08/08 00:56:58;;;;;;;;;;;;;;;17.15;52.91;101812.94;5064020;28;19956;-77
2022/08/08 00:59:29;;;;;;;;;;;;;;;17.12;53.39;101818.28;5064067;28;19924;-76
2022/08/08 01:02:06;;;;;;;;;;;;;;;17.10;53.26;101817.47;5058425;28;19956;-76
2022/08/08 01:04:43;;;;;;;;;;;;;;;17.12;53.42;101820.91;5063164;28;20359;-76
2022/08/08 01:07:15;;;;;;;;;;;;;;;17.12;53.42;101813.03;5053433;28;20016;-76
2022/08/08 01:09:58;;;;;;;;;;;;;;;17.05;53.59;101818.50;5059011;28;20019;-76
2022/08/08 01:12:42;;;;;;;;;;;;;;;17.12;53.21;101813.91;5062654;28;19939;-76
2022/08/08 01:15:19;;;;;;;;;;;;;;;17.12;53.34;101813.03;5063014;28;19941;-76
2022/08/08 01:18:00;;;;;;;;;;;;;;;17.07;53.24;101821.06;5056436;28;19928;-76
2022/08/08 01:20:40;;;;;;;;;;;;;;;17.02;53.87;101815.97;5054267;28;19920;-76
2022/08/08 01:23:08;;;;;;;;;;;;;;;17.07;53.32;101813.19;5054748;28;19917;-76
2022/08/08 01:25:52;;;;;;;;;;;;;;;17.00;53.70;101816.91;5055532;28;19928;-76
2022/08/08 01:28:25;;;;;;;;;;;;;;;16.99;53.76;101821.31;5059681;28;20545;-76
2022/08/08 01:31:08;;;;;;;;;;;;;;;16.90;54.01;101811.09;5056011;28;19943;-76
2022/08/08 01:33:33;;;;;;;;;;;;;;;16.89;54.21;101819.00;5063609;28;19924;-76
2022/08/08 01:36:17;;;;;;;;;;;;;;;16.90;54.25;101812.88;5060651;28;20311;-76
2022/08/08 01:39:01;;;;;;;;;;;;;;;16.86;54.43;101819.09;5062520;28;20278;-76
2022/08/08 01:41:30;;;;;;;;;;;;;;;16.78;54.70;101816.72;5053188;28;19929;-76
2022/08/08 01:44:01;;;;;;;;;;;;;;;16.75;54.75;101815.94;5070222;28;20292;-76
2022/08/08 01:46:44;;;;;;;;;;;;;;;16.78;54.25;101814.09;5074173;28;19920;-76
2022/08/08 01:49:20;;;;;;;;;;;;;;;16.79;54.18;101810.53;5071215;28;19931;-76
2022/08/08 01:52:04;;;;;;;;;;;;;;;16.82;54.03;101804.34;5047755;28;20300;-76
2022/08/08 01:54:44;;;;;;;;;;;;;;;16.82;54.52;101801.72;5060312;28;19928;-76
2022/08/08 01:57:25;;;;;;;;;;;;;;;16.81;54.54;101805.28;5063993;28;20380;-76
2022/08/08 02:00:03;;;;;;;;;;;;;;;16.80;54.52;101803.53;5062747;28;19931;-76
2022/08/08 02:02:47;;;;;;;;;;;;;;;16.70;54.88;101809.97;5061173;28;19936;-76
2022/08/08 02:05:15;;;;;;;;;;;;;;;16.70;54.79;101810.81;5062828;28;19998;-76
2022/08/08 02:07:50;;;;;;;;;;;;;;;16.63;54.51;101808.41;5064725;28;19920;-76
2022/08/08 02:10:21;;;;;;;;;;;;;;;16.61;55.58;101818.09;5065888;28;19924;-77
2022/08/08 02:12:52;;;;;;;;;;;;;;;16.70;55.07;101813.44;5061591;28;19924;-76
2022/08/08 02:15:28;;;;;;;;;;;;;;;16.70;55.07;101818.69;5060300;28;19921;-76
2022/08/08 02:17:53;;;;;;;;;;;;;;;16.61;55.11;101826.78;5059154;28;19924;-76
2022/08/08 02:20:18;;;;;;;;;;;;;;;16.57;54.90;101821.69;5058194;28;19927;-76
2022/08/08 02:23:02;;;;;;;;;;;;;;;16.58;55.06;101812.94;5058602;28;19955;-76
2022/08/08 02:25:33;;;;;;;;;;;;;;;16.60;54.67;101817.22;5062799;28;19924;-76
2022/08/08 02:28:02;;;;;;;;;;;;;;;16.60;54.58;101817.22;5062215;28;20301;-76
2022/08/08 02:30:41;;;;;;;;;;;;;;;16.62;54.45;101820.66;5058312;28;20301;-76
2022/08/08 02:33:06;;;;;;;;;;;;;;;16.60;54.86;101818.97;5064576;28;19925;-75
2022/08/08 02:35:53;;;;;;;;;;;;;;;16.58;54.59;101818.19;5062812;28;20374;-76
2022/08/08 02:38:41;;;;;;;;;;;;;;;16.55;54.71;101816.47;5066673;28;19956;-76
2022/08/08 02:41:07;;;;;;;;;;;;;;;16.53;54.86;101823.53;5064969;28;19943;-76
2022/08/08 02:43:50;;;;;;;;;;;;;;;16.56;54.58;101825.22;5075134;28;19916;-76
2022/08/08 02:46:24;;;;;;;;;;;;;;;16.48;54.90;101822.81;5059779;28;19921;-76
2022/08/08 02:48:52;;;;;;;;;;;;;;;16.33;55.10;101834.59;5049090;28;19929;-76
2022/08/08 02:51:17;;;;;;;;;;;;;;;16.43;55.12;101828.19;5062187;28;19920;-76
2022/08/08 02:54:01;;;;;;;;;;;;;;;16.37;55.47;101830.97;5055417;28;19974;-76
2022/08/08 02:56:29;;;;;;;;;;;;;;;16.34;55.38;101835.47;5060604;28;19921;-76
2022/08/08 02:59:13;;;;;;;;;;;;;;;16.33;55.46;101839.84;5059244;28;20379;-76
2022/08/08 03:01:57;;;;;;;;;;;;;;;16.34;55.11;101836.31;5062672;28;19940;-76
2022/08/08 03:04:41;;;;;;;;;;;;;;;16.35;55.39;101835.41;5058437;28;20011;-76
2022/08/08 03:07:24;;;;;;;;;;;;;;;16.35;55.85;101835.41;5057275;28;19920;-76
2022/08/08 03:10:08;;;;;;;;;;;;;;;16.37;55.34;101830.16;5066842;28;19928;-76
2022/08/08 03:12:34;;;;;;;;;;;;;;;16.30;56.00;101834.69;5070383;28;19954;-76
2022/08/08 03:15:05;;;;;;;;;;;;;;;16.29;55.76;101834.72;5043843;28;19920;-76
2022/08/08 03:17:38;;;;;;;;;;;;;;;16.19;55.75;101841.13;5065162;28;19920;-76
2022/08/08 03:20:07;;;;;;;;;;;;;;;16.22;55.92;101841.06;5056743;28;19927;-76
2022/08/08 03:22:41;;;;;;;;;;;;;;;16.15;56.09;101836.88;5059637;28;19917;-76
2022/08/08 03:25:06;;;;;;;;;;;;;;;16.19;55.97;101842.00;5053935;28;20043;-76
2022/08/08 03:27:31;;;;;;;;;;;;;;;16.12;56.57;101842.19;5060723;28;20008;-76
2022/08/08 03:30:00;;;;;;;;;;;;;;;16.17;56.36;101849.03;5058620;28;19925;-76
2022/08/08 03:35:10;;;;;;;;;;;;;;;16.13;56.03;101847.41;5074379;28;19974;-76
2022/08/08 03:37:35;;;;;;;;;;;;;;;16.17;56.06;101846.41;5040887;28;19922;-76
2022/08/08 03:40:02;;;;;;;;;;;;;;;16.13;56.69;101855.28;5056566;28;19932;-76
2022/08/08 03:42:27;;;;;;;;;;;;;;;16.16;56.18;101855.19;5063745;28;19992;-76
2022/08/08 03:44:53;;;;;;;;;;;;;;;16.14;56.30;101854.34;5070578;28;19933;-76
2022/08/08 03:47:19;;;;;;;;;;;;;;;16.15;56.50;101852.59;5070792;28;20369;-76
2022/08/08 03:49:44;;;;;;;;;;;;;;;16.08;56.71;101854.50;5065376;28;19951;-77
2022/08/08 03:52:10;;;;;;;;;;;;;;;16.11;56.36;101851.81;5067134;28;19962;-76
2022/08/08 03:54:35;;;;;;;;;;;;;;;16.05;56.49;101854.59;5059326;28;19921;-76
2022/08/08 03:57:01;;;;;;;;;;;;;;;16.02;56.37;101851.22;5067826;28;20321;-76
2022/08/08 03:59:29;;;;;;;;;;;;;;;16.03;56.64;101852.91;5065826;28;19924;-76
2022/08/08 04:01:54;;;;;;;;;;;;;;;16.07;56.89;101859.81;5061114;28;19959;-76
2022/08/08 04:04:20;;;;;;;;;;;;;;;16.04;56.98;101859.88;5055230;28;19963;-76
2022/08/08 04:06:54;;;;;;;;;;;;;;;16.10;56.52;101862.34;5057380;28;19967;-76
2022/08/08 04:09:19;;;;;;;;;;;;;;;16.09;56.85;101864.09;5059067;28;20031;-76
2022/08/08 04:11:45;;;;;;;;;;;;;;;16.03;56.36;101860.78;5059474;28;20355;-76
2022/08/08 04:14:10;;;;;;;;;;;;;;;16.11;56.44;101870.16;5057206;28;19920;-76
2022/08/08 04:16:35;;;;;;;;;;;;;;;16.08;56.11;101861.50;5058092;28;19939;-76
2022/08/08 04:19:01;;;;;;;;;;;;;;;16.07;56.18;101862.44;5069895;28;19920;-76
2022/08/08 04:21:26;;;;;;;;;;;;;;;16.04;56.77;101866.00;5055449;28;20618;-76
2022/08/08 04:23:51;;;;;;;;;;;;;;;15.90;56.97;101868.09;5038084;28;19924;-76
2022/08/08 04:26:17;;;;;;;;;;;;;;;15.98;57.18;101871.41;5059286;28;20019;-76
2022/08/08 04:28:42;;;;;;;;;;;;;;;15.97;56.64;101870.53;5037148;28;20016;-76
2022/08/08 04:31:07;;;;;;;;;;;;;;;15.93;57.14;101876.75;5057358;28;19927;-76
2022/08/08 04:33:34;;;;;;;;;;;;;;;15.97;57.00;101878.41;5058033;28;20377;-76
2022/08/08 04:35:59;;;;;;;;;;;;;;;15.92;57.31;101875.03;5054878;28;20042;-76
2022/08/08 04:38:24;;;;;;;;;;;;;;;15.89;57.39;101872.50;5058922;28;19929;-76
2022/08/08 04:40:49;;;;;;;;;;;;;;;15.94;57.12;101883.72;5059078;28;20019;-76
2022/08/08 04:43:15;;;;;;;;;;;;;;;16.01;57.23;101879.19;5058947;28;19928;-76
2022/08/08 04:45:40;;;;;;;;;;;;;;;16.04;56.95;101881.72;5056760;28;19921;-76
2022/08/08 04:48:05;;;;;;;;;;;;;;;16.07;56.58;101881.66;5054804;28;19924;-76
2022/08/08 04:50:31;;;;;;;;;;;;;;;16.04;57.48;101880.84;5055176;28;20266;-76
2022/08/08 04:52:56;;;;;;;;;;;;;;;15.99;57.36;101893.22;5054947;28;20007;-76
2022/08/08 04:55:22;;;;;;;;;;;;;;;16.00;57.20;101885.31;5055815;28;19971;-76
2022/08/08 04:57:47;;;;;;;;;;;;;;;15.96;57.83;101891.53;5057146;28;19959;-76
2022/08/08 05:00:13;;;;;;;;;;;;;;;16.01;57.63;101894.91;5057516;28;20039;-76
2022/08/08 05:02:38;;;;;;;;;;;;;;;16.03;57.31;101897.47;5056972;28;19970;-76
2022/08/08 05:05:04;;;;;;;;;;;;;;;16.00;57.58;101894.94;5058767;28;19928;-76
2022/08/08 05:07:29;;;;;;;;;;;;;;;15.92;57.74;101893.38;5055968;28;19921;-76
2022/08/08 05:09:54;;;;;;;;;;;;;;;15.96;58.00;101894.13;5057558;28;20313;-76
2022/08/08 05:12:20;;;;;;;;;;;;;;;15.89;57.77;101893.47;5060434;28;20493;-76
2022/08/08 05:14:45;;;;;;;;;;;;;;;15.97;57.85;101903.75;5058474;28;20282;-76
2022/08/08 05:17:10;;;;;;;;;;;;;;;16.09;57.11;101889.44;5066450;28;19920;-76
2022/08/08 05:19:36;;;;;;;;;;;;;;;16.17;56.54;101898.84;5055083;28;20654;-76
2022/08/08 05:22:04;;;;;;;;;;;;;;;16.08;56.85;101899.06;5063505;28;19975;-75
2022/08/08 05:24:29;;;;;;;;;;;;;;;16.09;57.63;101906.03;5070558;28;19917;-76
2022/08/08 05:26:54;;;;;;;;;;;;;;;16.11;57.74;101909.47;5064725;28;19927;-76
2022/08/08 05:29:20;;;;;;;;;;;;;;;16.18;56.71;101897.94;5062744;28;19942;-76
2022/08/08 05:31:45;;;;;;;;;;;;;;;16.18;56.87;101900.56;5058231;28;20311;-76
2022/08/08 05:34:23;;;;;;;;;;;;;;;16.15;56.66;101910.28;5047160;28;19940;-75
2022/08/08 05:36:48;;;;;;;;;;;;;;;16.11;56.63;101916.47;5060370;28;19916;-75
2022/08/08 05:39:17;;;;;;;;;;;;;;;16.22;56.17;101914.47;5054649;28;20274;-76
2022/08/08 05:41:43;;;;;;;;;;;;;;;16.26;56.29;101922.19;5062229;28;19932;-76
2022/08/08 05:44:12;;;;;;;;;;;;;;;16.23;56.41;101921.41;5054872;28;19963;-76
2022/08/08 05:46:39;;;;;;;;;;;;;;;16.30;56.30;101917.72;5055480;28;19916;-75
2022/08/08 05:49:05;;;;;;;;;;;;;;;16.35;56.67;101924.56;5056124;28;19920;-76
2022/08/08 05:51:31;;;;;;;;;;;;;;;16.34;56.55;101928.09;5059333;28;19921;-76
2022/08/08 05:53:56;;;;;;;;;;;;;;;16.32;56.90;101929.03;5056723;28;19921;-75
2022/08/08 05:56:22;;;;;;;;;;;;;;;16.31;57.28;101924.72;5058063;28;19920;-76
2022/08/08 05:58:51;;;;;;;;;;;;;;;16.28;57.37;101930.91;5061147;28;19921;-76
2022/08/08 06:01:17;;;;;;;;;;;;;;;16.44;57.02;101929.56;5057894;28;19928;-76
2022/08/08 06:03:46;;;;;;;;;;;;;;;16.50;56.91;101932.03;5053717;28;19929;-76
2022/08/08 06:06:11;;;;;;;;;;;;;;;16.41;57.47;101934.03;5059185;28;19936;-76
2022/08/08 06:08:42;;;;;;;;;;;;;;;16.52;56.98;101937.25;5052994;28;19920;-76
2022/08/08 06:11:07;;;;;;;;;;;;;;;16.44;57.66;101936.56;5059531;28;19920;-76
2022/08/08 06:13:33;;;;;;;;;;;;;;;16.52;57.96;101937.25;5043556;28;20011;-76
2022/08/08 06:15:58;;;;;;;;;;;;;;;16.32;57.64;101939.53;5059272;28;20403;-76
2022/08/08 06:18:24;;;;;;;;;;;;;;;16.50;58.08;101941.66;5066191;28;19916;-76
2022/08/08 06:20:51;;;;;;;;;;;;;;;16.61;57.65;101938.75;5055681;28;19925;-76
2022/08/08 06:23:16;;;;;;;;;;;;;;;16.55;57.81;101945.00;5052458;28;20011;-76
2022/08/08 06:25:42;;;;;;;;;;;;;;;16.57;57.48;101948.47;5056608;28;20011;-76
2022/08/08 06:28:16;;;;;;;;;;;;;;;16.63;56.97;101944.81;5055077;28;19978;-76
2022/08/08 06:30:42;;;;;;;;;;;;;;;16.68;57.28;101949.03;5065258;28;19921;-76
2022/08/08 06:33:09;;;;;;;;;;;;;;;16.66;57.06;101942.97;5066659;28;19929;-76
2022/08/08 06:35:35;;;;;;;;;;;;;;;16.65;57.22;101954.38;5054948;28;19920;-76
2022/08/08 06:38:04;;;;;;;;;;;;;;;16.71;57.19;101951.59;5066881;28;19982;-76
2022/08/08 06:40:30;;;;;;;;;;;;;;;16.76;57.49;101954.97;5068358;28;20441;-76
2022/08/08 06:42:59;;;;;;;;;;;;;;;16.81;57.33;101949.59;5057378;28;19924;-76
2022/08/08 06:45:26;;;;;;;;;;;;;;;16.85;57.28;101953.84;5064513;28;19928;-75
2022/08/08 06:47:51;;;;;;;;;;;;;;;16.84;56.80;101954.75;5064983;28;19928;-76
2022/08/08 06:50:17;;;;;;;;;;;;;;;16.82;57.13;101961.78;5065341;28;19924;-76
2022/08/08 06:52:42;;;;;;;;;;;;;;;16.87;57.33;101963.41;5062217;28;20500;-76
2022/08/08 06:55:08;;;;;;;;;;;;;;;16.92;56.66;101960.66;5059884;28;19921;-76
2022/08/08 06:57:33;;;;;;;;;;;;;;;16.93;56.57;101965.00;5057110;28;19949;-76
2022/08/08 06:59:59;;;;;;;;;;;;;;;16.90;57.04;101963.34;5068072;28;19923;-76
2022/08/08 07:02:26;;;;;;;;;;;;;;;16.85;57.69;101967.81;5059876;28;19920;-76
2022/08/08 07:04:53;;;;;;;;;;;;;;;16.96;56.69;101968.41;5060099;28;20425;-75
2022/08/08 07:07:22;;;;;;;;;;;;;;;16.98;56.36;101966.59;5045740;28;20044;-75
2022/08/08 07:10:00;;;;;;;;;;;;;;;17.02;56.53;101976.09;5062960;28;19920;-76
2022/08/08 07:12:35;;;;;;;;;;;;;;;16.97;57.37;101980.59;5060267;28;20443;-76
2022/08/08 07:15:04;;;;;;;;;;;;;;;17.03;57.38;101971.69;5071572;28;20000;-76
2022/08/08 07:17:32;;;;;;;;;;;;;;;17.07;57.23;101973.34;5065700;28;19920;-76
2022/08/08 07:19:57;;;;;;;;;;;;;;;17.14;57.03;101971.41;5066426;28;19916;-76
2022/08/08 07:22:26;;;;;;;;;;;;;;;17.13;57.59;101975.78;5062379;28;20289;-76
2022/08/08 07:24:57;;;;;;;;;;;;;;;17.18;57.56;101978.25;5060631;28;19939;-76
2022/08/08 07:27:23;;;;;;;;;;;;;;;17.20;57.30;101981.72;5065201;28;20385;-76
2022/08/08 07:29:50;;;;;;;;;;;;;;;17.20;57.09;101977.34;5064827;28;20345;-76
2022/08/08 07:32:16;;;;;;;;;;;;;;;17.23;57.05;101982.50;5067665;28;19931;-76
2022/08/08 07:34:42;;;;;;;;;;;;;;;17.17;57.33;101979.19;5053025;28;19936;-76
2022/08/08 07:37:09;;;;;;;;;;;;;;;17.22;57.35;101979.91;5073740;28;20430;-75
2022/08/08 07:39:35;;;;;;;;;;;;;;;17.25;57.01;101980.69;5049307;28;19921;-76
2022/08/08 07:42:01;;;;;;;;;;;;;;;17.24;56.33;101976.31;5064132;28;20364;-76
2022/08/08 07:44:27;;;;;;;;;;;;;;;17.28;57.08;101985.84;5070654;28;19942;-76
2022/08/08 07:46:53;;;;;;;;;;;;;;;17.26;56.73;101985.03;5058370;28;20498;-76
2022/08/08 07:49:18;;;;;;;;;;;;;;;17.27;57.23;101991.13;5044001;28;19923;-76
2022/08/08 07:51:43;;;;;;;;;;;;;;;17.34;55.40;101982.16;5066261;28;19917;-76
2022/08/08 07:54:18;;;;;;;;;;;;;;;17.33;56.87;101986.56;5047679;28;19924;-75
2022/08/08 07:57:06;;;;;;;;;;;;;;;17.35;56.42;101982.13;5066433;28;20309;-76
2022/08/08 07:59:44;;;;;;;;;;;;;;;17.32;54.93;101984.84;5015434;28;19916;-75
2022/08/08 08:02:16;;;;;;;;;;;;;;;17.37;55.73;101979.47;5052305;28;20003;-76
2022/08/08 08:04:45;;;;;;;;;;;;;;;17.35;55.65;101982.13;5067928;28;20479;-76
2022/08/08 08:07:11;;;;;;;;;;;;;;;17.44;55.40;101979.22;5045040;28;19917;-76
2022/08/08 08:09:38;;;;;;;;;;;;;;;17.41;55.60;101981.09;5061922;28;19927;-76
2022/08/08 08:12:03;;;;;;;;;;;;;;;17.50;55.23;101986.06;5067894;28;20411;-76
2022/08/08 08:14:39;;;;;;;;;;;;;;;17.49;55.17;101979.97;5062825;28;19920;-76
2022/08/08 08:17:06;;;;;;;;;;;;;;;17.55;55.16;101978.91;5069125;28;19912;-76
2022/08/08 08:19:32;;;;;;;;;;;;;;;17.58;55.06;101982.31;5054489;28;20003;-76
2022/08/08 08:21:57;;;;;;;;;;;;;;;17.61;54.49;101984.00;5070215;28;20015;-76
2022/08/08 08:24:22;;;;;;;;;;;;;;;17.62;55.17;101983.06;5060501;28;19924;-75
2022/08/08 08:26:48;;;;;;;;;;;;;;;17.60;54.44;101982.28;5052906;28;19932;-76
2022/08/08 08:29:13;;;;;;;;;;;;;;;17.63;54.45;101976.06;5064092;28;19921;-76
2022/08/08 08:31:38;;;;;;;;;;;;;;;17.73;53.63;101977.50;5058534;28;19917;-75
2022/08/08 08:34:04;;;;;;;;;;;;;;;17.74;52.88;101976.59;5055291;28;19921;-76
2022/08/08 08:36:29;;;;;;;;;;;;;;;17.76;52.57;101972.16;5067043;28;20007;-76
2022/08/08 08:38:54;;;;;;;;;;;;;;;17.79;52.78;101974.69;5067765;28;19966;-76
2022/08/08 08:41:20;;;;;;;;;;;;;;;17.78;53.59;101971.19;5060654;28;20281;-76
2022/08/08 08:43:48;;;;;;;;;;;;;;;17.81;52.53;101967.59;5060054;28;19982;-76
2022/08/08 08:46:13;;;;;;;;;;;;;;;17.83;53.10;101976.31;5063881;28;19924;-76
2022/08/08 08:48:40;;;;;;;;;;;;;;;17.92;49.69;101971.59;5060095;28;19924;-76
2022/08/08 08:51:09;;;;;;;;;;;;;;;17.95;50.05;101973.25;5062435;28;20434;-76
2022/08/08 08:53:35;;;;;;;;;;;;;;;17.93;50.51;101973.34;5064404;28;19928;-76
2022/08/08 08:56:02;;;;;;;;;;;;;;;17.90;51.50;101973.44;5055960;28;20019;-76
2022/08/08 08:58:32;;;;;;;;;;;;;;;17.89;53.49;101970.84;5054243;28;20540;-76
2022/08/08 09:00:59;;;;;;;;;;;;;;;17.89;52.85;101970.84;5052629;28;19932;-76
2022/08/08 09:03:25;;;;;;;;;;;;;;;18.04;49.13;101967.72;5059533;28;19999;-76
2022/08/08 09:05:52;;;;;;;;;;;;;;;18.03;49.44;101979.16;5064202;28;20476;-76
2022/08/08 09:08:20;;;;;;;;;;;;;;;17.98;53.20;101970.53;5056251;28;19935;-76
2022/08/08 09:10:46;;;;;;;;;;;;;;;18.05;50.06;101967.66;5075723;28;19917;-76
2022/08/08 09:13:12;;;;;;;;;;;;;;;18.04;50.58;101972.97;5059401;28;19927;-76
2022/08/08 09:15:38;;;;;;;;;;;;;;;18.10;48.64;101965.75;5057539;28;19939;-76
2022/08/08 09:18:04;;;;;;;;;;;;;;;18.10;49.80;101973.63;5062135;28;19920;-75
2022/08/08 09:20:30;;;;;;;;;;;;;;;18.09;49.21;101969.28;5060902;28;19978;-76
2022/08/08 09:22:55;;;;;;;;;;;;;;;18.28;48.68;101961.63;5061938;28;20436;-76
2022/08/08 09:25:21;;;;;;;;;;;;;;;18.24;49.10;101972.31;5058613;28;19920;-76
2022/08/08 09:27:46;;;;;;;;;;;;;;;18.36;49.16;101969.28;5056543;28;21398;-76
2022/08/08 09:30:16;;;;;;;;;;;;;;;18.36;48.71;101969.28;5061219;28;20031;-76
2022/08/08 09:32:42;;;;;;;;;;;;;;;18.40;48.25;101963.84;5058078;28;19928;-76
2022/08/08 09:35:09;;;;;;;;;;;;;;;18.40;47.37;101960.34;5054228;28;19963;-76
2022/08/08 09:37:45;;;;;;;;;;;;;;;18.38;48.50;101959.56;5056648;28;19943;-76
2022/08/08 09:40:15;;;;;;;;;;;;;;;18.44;47.75;101959.34;5056461;28;20428;-75
2022/08/08 09:42:48;;;;;;;;;;;;;;;18.60;47.41;101958.78;5058122;28;19925;-76
2022/08/08 09:45:16;;;;;;;;;;;;;;;18.77;46.82;101960.81;5041979;28;19931;-76
2022/08/08 09:47:42;;;;;;;;;;;;;;;18.73;46.61;101959.19;5070198;28;19925;-76
2022/08/08 09:50:09;;;;;;;;;;;;;;;18.71;46.79;101945.25;5059292;28;19928;-76
2022/08/08 09:52:35;;;;;;;;;;;;;;;18.48;47.84;101943.41;5054805;28;19925;-76
2022/08/08 09:55:01;;;;;;;;;;;;;;;18.73;46.34;101943.41;5060034;28;20395;-76
2022/08/08 09:57:34;;;;;;;;;;;;;;;18.84;45.72;101941.25;5061725;28;19923;-76
2022/08/08 10:00:00;;;;;;;;;;;;;;;18.87;44.24;101935.03;5056668;28;19925;-76
2022/08/08 10:02:32;;;;;;;;;;;;;;;18.73;44.79;101943.41;5055905;28;19964;-75
2022/08/08 10:05:05;;;;;;;;;;;;;;;18.83;44.98;101942.16;5070286;28;19921;-76
2022/08/08 10:07:30;;;;;;;;;;;;;;;19.07;44.38;101941.25;5066850;28;20385;-76
2022/08/08 10:09:56;;;;;;;;;;;;;;;18.98;44.96;101940.75;5045916;28;19920;-77
2022/08/08 10:12:30;;;;;;;;;;;;;;;18.81;44.82;101949.25;5065309;28;19912;-76
2022/08/08 10:14:58;;;;;;;;;;;;;;;18.89;44.66;101936.69;5063976;28;19921;-76
2022/08/08 10:17:23;;;;;;;;;;;;;;;18.80;45.11;101936.16;5062281;28;19935;-76
2022/08/08 10:19:51;;;;;;;;;;;;;;;18.86;44.73;101936.78;5065129;28;20292;-76
2022/08/08 10:22:18;;;;;;;;;;;;;;;18.90;45.42;101927.84;5060837;28;19930;-76
2022/08/08 10:24:45;;;;;;;;;;;;;;;18.96;44.06;101924.13;5061089;28;20074;-76
2022/08/08 10:27:11;;;;;;;;;;;;;;;18.86;44.43;101926.25;5064579;28;19952;-76
2022/08/08 10:29:36;;;;;;;;;;;;;;;18.82;44.81;101922.00;5061522;28;19979;-76
2022/08/08 10:34:55;;;;;;;;;;;;;;;19.00;43.60;101913.44;5064311;28;19994;-76
2022/08/08 10:37:25;;;;;;;;;;;;;;;18.79;44.25;101921.25;5064283;28;19928;-76
2022/08/08 10:39:50;;;;;;;;;;;;;;;18.76;44.67;101922.25;5065775;28;20011;-76
2022/08/08 10:42:17;;;;;;;;;;;;;;;18.67;45.49;101918.16;5065893;28;20018;-76
2022/08/08 10:44:43;;;;;;;;;;;;;;;18.87;43.63;101916.59;5071601;28;20503;-76
2022/08/08 10:47:12;;;;;;;;;;;;;;;19.03;43.49;101915.09;5061326;28;19917;-76
2022/08/08 10:49:42;;;;;;;;;;;;;;;19.18;42.62;101907.47;5044409;28;20286;-76
2022/08/08 10:52:08;;;;;;;;;;;;;;;19.25;42.13;101908.09;5066681;28;19920;-76
2022/08/08 10:54:33;;;;;;;;;;;;;;;18.94;42.89;101908.41;5059824;28;19923;-76
2022/08/08 10:57:00;;;;;;;;;;;;;;;18.97;42.94;101903.00;5060611;28;19926;-76
2022/08/08 10:59:25;;;;;;;;;;;;;;;18.68;45.40;101906.75;5056697;28;19971;-76
2022/08/08 11:01:51;;;;;;;;;;;;;;;18.73;44.43;101909.19;5054479;28;19960;-76
2022/08/08 11:04:16;;;;;;;;;;;;;;;18.88;43.79;101899.88;5063913;28;20049;-76
2022/08/08 11:06:42;;;;;;;;;;;;;;;18.70;45.73;101907.53;5063187;28;19921;-76
2022/08/08 11:09:08;;;;;;;;;;;;;;;18.63;48.29;101900.75;5064302;28;19912;-76
2022/08/08 11:11:41;;;;;;;;;;;;;;;18.72;45.06;101893.47;5055472;28;20358;-76
2022/08/08 11:14:07;;;;;;;;;;;;;;;19.12;41.72;101889.25;5067296;28;19942;-76
2022/08/08 11:16:33;;;;;;;;;;;;;;;18.84;43.01;101891.22;5054876;28;19974;-76
2022/08/08 11:18:59;;;;;;;;;;;;;;;19.24;41.45;101888.78;5078244;28;19916;-76
2022/08/08 11:21:24;;;;;;;;;;;;;;;19.35;41.30;101888.38;5061787;28;19927;-76
2022/08/08 11:23:52;;;;;;;;;;;;;;;19.28;41.53;101889.56;5067311;28;19920;-75
2022/08/08 11:26:18;;;;;;;;;;;;;;;18.95;51.92;101888.19;5069653;28;19991;-76
2022/08/08 11:28:44;;;;;;;;;;;;;;;18.86;42.93;101876.25;5059232;28;20412;-76
2022/08/08 11:31:13;;;;;;;;;;;;;;;19.39;40.77;101882.09;5057014;28;19927;-76
2022/08/08 11:33:39;;;;;;;;;;;;;;;19.20;41.06;101874.00;5062610;28;19919;-76
2022/08/08 11:36:05;;;;;;;;;;;;;;;19.35;41.34;101880.47;5061926;28;19913;-76
2022/08/08 11:38:31;;;;;;;;;;;;;;;19.39;41.24;101874.19;5057391;28;19966;-76
2022/08/08 11:40:56;;;;;;;;;;;;;;;19.57;40.17;101883.13;5062974;28;19925;-76
2022/08/08 11:43:23;;;;;;;;;;;;;;;19.65;39.81;101876.59;5064102;28;19929;-76
2022/08/08 11:45:49;;;;;;;;;;;;;;;19.59;41.66;101879.50;5059465;28;20047;-76
2022/08/08 11:48:15;;;;;;;;;;;;;;;19.22;45.51;101882.69;5074533;28;19991;-76
2022/08/08 11:50:41;;;;;;;;;;;;;;;19.18;41.41;101873.22;5062067;28;19953;-76
2022/08/08 11:53:08;;;;;;;;;;;;;;;18.91;43.38;101874.28;5059725;28;19921;-77
2022/08/08 11:55:36;;;;;;;;;;;;;;;19.66;40.20;101877.47;5060105;28;19956;-76
2022/08/08 11:58:04;;;;;;;;;;;;;;;19.85;39.02;101867.84;5059746;28;20007;-76
2022/08/08 12:00:29;;;;;;;;;;;;;;;19.67;39.81;101871.25;5051902;28;19939;-77
2022/08/08 12:02:56;;;;;;;;;;;;;;;19.67;39.45;101871.25;5064675;28;19929;-77
2022/08/08 12:05:31;;;;;;;;;;;;;;;19.81;39.00;101868.94;5060402;28;19924;-76
2022/08/08 12:07:56;;;;;;;;;;;;;;;19.90;38.95;101860.63;5057424;28;19924;-76
2022/08/08 12:10:23;;;;;;;;;;;;;;;19.70;39.96;101860.59;5061551;28;19975;-76
2022/08/08 12:12:49;;;;;;;;;;;;;;;20.28;37.96;101861.66;5061534;28;19921;-76
2022/08/08 12:15:26;;;;;;;;;;;;;;;20.04;38.28;101858.25;5057701;28;19928;-76
2022/08/08 12:17:51;;;;;;;;;;;;;;;20.29;38.05;101856.28;5060341;28;20347;-76
2022/08/08 12:20:16;;;;;;;;;;;;;;;20.07;38.67;101863.41;5063771;28;19936;-76
2022/08/08 12:22:49;;;;;;;;;;;;;;;19.86;39.18;101851.13;5054783;28;19929;-76
2022/08/08 12:25:22;;;;;;;;;;;;;;;19.50;44.48;101856.16;5059242;28;19920;-77
2022/08/08 12:27:47;;;;;;;;;;;;;;;19.20;52.36;101855.56;5063427;28;19924;-76
2022/08/08 12:30:13;;;;;;;;;;;;;;;19.73;40.15;101856.06;5059917;28;19924;-76
2022/08/08 12:32:42;;;;;;;;;;;;;;;19.93;38.13;101838.53;5072524;28;19916;-76
2022/08/08 12:35:17;;;;;;;;;;;;;;;20.04;39.49;101833.66;5056468;28;19925;-76
2022/08/08 12:37:42;;;;;;;;;;;;;;;20.20;40.00;101843.50;5057800;28;19916;-76
2022/08/08 12:40:15;;;;;;;;;;;;;;;19.95;40.40;101837.56;5059220;28;20296;-76
2022/08/08 12:42:47;;;;;;;;;;;;;;;20.01;39.24;101837.28;5058466;28;19978;-76
2022/08/08 12:45:12;;;;;;;;;;;;;;;19.65;40.46;101837.06;5064941;28;20007;-76
2022/08/08 12:47:37;;;;;;;;;;;;;;;20.37;37.88;101831.34;5040289;28;20008;-76
2022/08/08 12:50:03;;;;;;;;;;;;;;;20.29;38.67;101832.53;5060675;28;19924;-76